Jangho Young — DSFY2 — position and weather

sailwx.info

Track history (hours):
 
Tides and Currents Weather Stations Pressure Air Temp Water Temp Dewpoint Dewpoint Depression Visibility Wind Speed Wind Dir Waves Ship Positions

Jangho Young

Last reported at 2018-Apr-22 15:57 UTC. Time now 2018-Apr-22 16:26 UTC.
Position N 34°37' E 135°22'.

Length 60 m; draft 2.9 m.

Type: Cargo ship. MMSI: 441245000.

Date/timePositionNaut miles runAvg speedWind from/ knotsBaromVisibWave heightAir tempDewpointWater temp
2018-Apr-22 15:57N 34°37' E 135°22'0 0.0
2018-Apr-22 15:30N 34°37' E 135°22'0 0.0
2018-Apr-22 15:00N 34°37' E 135°22'0 0.0
2018-Apr-22 14:30N 34°37' E 135°22'0 0.1
2018-Apr-22 14:00N 34°37' E 135°22'0 0.0
2018-Apr-22 13:27N 34°37' E 135°22'0 0.0
2018-Apr-22 13:00N 34°37' E 135°22'0 0.0
2018-Apr-22 12:30N 34°37' E 135°22'0 0.0
2018-Apr-22 12:00N 34°37' E 135°22'0 0.0
2018-Apr-22 11:30N 34°37' E 135°22'0 0.0
2018-Apr-22 11:00N 34°37' E 135°22'0 0.0
2018-Apr-22 10:30N 34°37' E 135°22'0 0.0
2018-Apr-22 10:00N 34°37' E 135°22'1 1.3
2018-Apr-22 09:30N 34°37' E 135°21'5 9.2
2018-Apr-22 09:00N 34°36' E 135°15'510.1
2018-Apr-22 08:30N 34°35' E 135°09'510.5
2018-Apr-22 08:00N 34°36' E 135°03'510.5
2018-Apr-22 07:30N 34°36' E 134°57'510.8
2018-Apr-22 07:00N 34°34' E 134°51'510.0
2018-Apr-22 06:30N 34°32' E 134°45'510.1
2018-Apr-22 06:00N 34°30' E 134°40'510.1
2018-Apr-22 05:30N 34°28' E 134°34'510.0
2018-Apr-22 04:59N 34°26' E 134°28'5 9.6
2018-Apr-22 04:30N 34°24' E 134°23'5 9.1
2018-Apr-22 04:00N 34°24' E 134°18'4 8.8
2018-Apr-22 03:30N 34°24' E 134°12'5 9.0
2018-Apr-22 03:00N 34°26' E 134°07'72 5.1
2018-Apr-21 12:55N 34°01' E 132°46'4 9.9
2018-Apr-21 12:30N 33°58' E 132°43'4 8.9
2018-Apr-21 12:00N 33°55' E 132°39'5 9.1
2018-Apr-21 11:30N 33°53' E 132°34'8 9.0
2018-Apr-21 10:36N 33°51' E 132°25'1 9.3
2018-Apr-21 10:29N 33°50' E 132°24'8 8.9
2018-Apr-21 09:34N 33°50' E 132°14'1 9.0
2018-Apr-21 09:25N 33°50' E 132°12'3 8.3
2018-Apr-21 09:00N 33°48' E 132°09'5 8.4
2018-Apr-21 08:22N 33°45' E 132°03'3 8.6
2018-Apr-21 08:00N 33°45' E 131°59'4 8.8
2018-Apr-21 07:30N 33°45' E 131°54'4 8.8
2018-Apr-21 07:00N 33°46' E 131°49'5 9.6
2018-Apr-21 06:30N 33°47' E 131°43'5 9.5
2018-Apr-21 06:00N 33°48' E 131°37'5 9.1
2018-Apr-21 05:30N 33°49' E 131°32'5 9.2
2018-Apr-21 05:00N 33°50' E 131°27'4 9.1
2018-Apr-21 04:30N 33°51' E 131°21'5 9.2
2018-Apr-21 04:00N 33°52' E 131°16'4 8.8
2018-Apr-21 03:30N 33°53' E 131°11'4 8.7
2018-Apr-21 03:00N 33°55' E 131°06'4 8.5
2018-Apr-21 02:30N 33°57' E 131°02'4 7.0
2018-Apr-21 02:00N 33°58' E 130°58'2 4.3
2018-Apr-21 01:27N 33°57' E 130°55'0 0.0
2018-Apr-21 01:00N 33°57' E 130°55'0 0.1
2018-Apr-21 00:30N 33°57' E 130°56'0 0.2
2018-Apr-21 00:00N 33°57' E 130°56'0 0.0
2018-Apr-20 23:30N 33°57' E 130°56'3 5.4
2018-Apr-20 23:00N 33°54' E 130°54'5 9.8
2018-Apr-20 22:30N 33°58' E 130°50'4 8.6
2018-Apr-20 22:00N 34°02' E 130°48'4 8.7
2018-Apr-20 21:30N 34°05' E 130°44'4 8.9
2018-Apr-20 21:00N 34°07' E 130°40'5 9.2
2018-Apr-20 20:30N 34°10' E 130°35'5 9.5
2018-Apr-20 19:58N 34°12' E 130°30'4 9.4
2018-Apr-20 19:29N 34°15' E 130°26'5 9.4
2018-Apr-20 18:59N 34°18' E 130°21'4 9.3
2018-Apr-20 18:30N 34°20' E 130°16'5 9.6
2018-Apr-20 17:59N 34°23' E 130°11'5 9.2
2018-Apr-20 17:29N 34°25' E 130°06'4 9.4
2018-Apr-20 17:00N 34°28' E 130°02'5 9.2
2018-Apr-20 16:25N 34°31' E 129°56'4 9.0
2018-Apr-20 16:00N 34°33' E 129°53'5 9.2
2018-Apr-20 15:30N 34°35' E 129°48'5 9.4
2018-Apr-20 15:00N 34°38' E 129°43'4 8.7
2018-Apr-20 14:30N 34°40' E 129°39'5 9.0
2018-Apr-20 13:56N 34°43' E 129°34'4 8.4
2018-Apr-20 13:30N 34°45' E 129°30'5 8.1
2018-Apr-20 12:56N 34°47' E 129°25'4 9.4
2018-Apr-20 12:29N 34°49' E 129°20'4 9.1
2018-Apr-20 12:00N 34°51' E 129°15'5 9.1
2018-Apr-20 11:30N 34°53' E 129°10'4 8.5
2018-Apr-20 11:00N 34°55' E 129°06'15 0.6
2018-Apr-19 07:33N 35°00' E 128°48'110.8
2018-Apr-19 07:27N 34°59' E 128°49'4 8.1
2018-Apr-19 06:59N 34°59' E 128°54'9 7.5
2018-Apr-19 05:50N 35°01' E 129°04'2 6.3
2018-Apr-19 05:30N 35°02' E 129°06'4 7.6
2018-Apr-19 05:00N 35°06' E 129°05'1 1.3
2018-Apr-19 04:30N 35°06' E 129°05'0 0.1
2018-Apr-19 03:57N 35°06' E 129°05'0 0.1
2018-Apr-19 03:30N 35°06' E 129°05'0 0.1
2018-Apr-19 03:00N 35°06' E 129°05'0 0.1
2018-Apr-19 02:30N 35°06' E 129°05'0 0.0
2018-Apr-19 01:57N 35°06' E 129°05'0 0.1
2018-Apr-19 01:30N 35°06' E 129°05'0 0.0
2018-Apr-19 01:00N 35°06' E 129°05'0 0.3
2018-Apr-19 00:31N 35°06' E 129°05'4 7.8
2018-Apr-18 23:59N 35°04' E 129°09'45 9.2
2018-Apr-18 19:06N 34°37' E 129°53'2 8.8
2018-Apr-18 18:53N 34°36' E 129°55'5 9.6
2018-Apr-18 18:24N 34°33' E 129°59'19 8.9
2018-Apr-18 16:15N 34°22' E 130°18'5 9.1
2018-Apr-18 15:43N 34°19' E 130°23'3 8.6
2018-Apr-18 15:22N 34°17' E 130°25'4 8.9
2018-Apr-18 14:58N 34°15' E 130°29'4 9.1
2018-Apr-18 14:29N 34°12' E 130°33'5 9.0
2018-Apr-18 13:58N 34°09' E 130°38'4 9.0
2018-Apr-18 13:30N 34°07' E 130°42'4 8.9
2018-Apr-18 13:00N 34°04' E 130°46'5 9.3
2018-Apr-18 12:30N 34°02' E 130°50'4 8.2
2018-Apr-18 12:00N 33°58' E 130°53'4 7.5
2018-Apr-18 11:30N 33°55' E 130°56'5 9.7
2018-Apr-18 11:00N 33°59' E 130°60'3 5.1
2018-Apr-18 10:30N 33°58' E 131°02'1 2.4
2018-Apr-18 10:00N 33°57' E 131°04'2 3.3
2018-Apr-18 09:30N 33°56' E 131°05'5 9.4
2018-Apr-18 09:00N 33°54' E 131°10'5 9.5
2018-Apr-18 08:30N 33°52' E 131°15'5 9.2
2018-Apr-18 08:00N 33°51' E 131°21'1 2.1
2018-Apr-18 07:30N 33°51' E 131°22'3 6.3
2018-Apr-18 07:00N 33°50' E 131°25'4 8.8
2018-Apr-18 06:30N 33°49' E 131°30'4 8.6
2018-Apr-18 06:00N 33°48' E 131°36'4 8.3
2018-Apr-18 05:30N 33°48' E 131°41'4 8.2
2018-Apr-18 05:00N 33°47' E 131°45'4 8.4
2018-Apr-18 04:30N 33°46' E 131°50'3 4.6
2018-Apr-18 03:56N 33°45' E 131°53'510.9
2018-Apr-18 03:28N 33°46' E 131°47'1 2.4
2018-Apr-18 03:00N 33°46' E 131°48'5 8.8
2018-Apr-18 02:27N 33°46' E 131°54'4 9.0
2018-Apr-18 02:00N 33°45' E 131°59'5 9.1
2018-Apr-18 01:28N 33°46' E 132°05'5 9.3
2018-Apr-18 00:56N 33°49' E 132°09'4 8.8
2018-Apr-18 00:30N 33°50' E 132°14'5 9.0
2018-Apr-17 23:56N 33°50' E 132°20'11 8.7
2018-Apr-17 22:43N 33°53' E 132°32'3 9.6
2018-Apr-17 22:25N 33°54' E 132°36'4 9.5
2018-Apr-17 22:00N 33°56' E 132°40'5 9.6
2018-Apr-17 21:31N 33°59' E 132°44'84 9.3
2018-Apr-17 12:32N 34°25' E 134°20'210.1
2018-Apr-17 12:22N 34°25' E 134°22'4 9.9
2018-Apr-17 11:59N 34°27' E 134°27'510.0
2018-Apr-17 11:30N 34°29' E 134°32'510.0
2018-Apr-17 11:00N 34°30' E 134°38'510.4
2018-Apr-17 10:30N 34°32' E 134°44'610.7
2018-Apr-17 10:00N 34°34' E 134°50'511.2
2018-Apr-17 09:30N 34°36' E 134°56'5 8.8
2018-Apr-17 08:59N 34°37' E 135°01'4 8.9
2018-Apr-17 08:30N 34°36' E 135°06'5 9.9
2018-Apr-17 08:00N 34°35' E 135°12'5 9.5
2018-Apr-17 07:30N 34°34' E 135°18'5 9.2
2018-Apr-17 07:00N 34°32' E 135°23'1 2.4
2018-Apr-17 06:30N 34°31' E 135°24'0 0.0
2018-Apr-17 06:00N 34°31' E 135°24'0 0.0
2018-Apr-17 05:30N 34°31' E 135°24'0 0.0
2018-Apr-17 05:00N 34°31' E 135°24'0 0.0
2018-Apr-17 04:30N 34°31' E 135°24'0 0.0
2018-Apr-17 04:00N 34°31' E 135°24'0 0.0
2018-Apr-17 03:30N 34°31' E 135°24'0 0.0
2018-Apr-17 03:00N 34°31' E 135°24'0 0.0
2018-Apr-17 02:30N 34°31' E 135°24'0 0.0
2018-Apr-17 02:00N 34°31' E 135°24'0 0.0
2018-Apr-17 01:30N 34°31' E 135°24'0 0.0
2018-Apr-17 01:00N 34°31' E 135°24'0 0.0
2018-Apr-17 00:30N 34°31' E 135°24'0 0.0
2018-Apr-17 00:00N 34°31' E 135°24'0 0.0
2018-Apr-16 23:27N 34°31' E 135°24'0 0.0
2018-Apr-16 23:00N 34°31' E 135°24'0 0.2
2018-Apr-16 22:30N 34°31' E 135°23'2 4.5
2018-Apr-16 22:01N 34°32' E 135°22'0 0.5
2018-Apr-16 21:30N 34°32' E 135°21'0 0.0
2018-Apr-16 21:00N 34°32' E 135°21'0 0.0
2018-Apr-16 20:30N 34°32' E 135°21'0 0.0
2018-Apr-16 20:00N 34°32' E 135°21'0 0.0
2018-Apr-16 19:30N 34°32' E 135°21'0 0.0
2018-Apr-16 19:00N 34°32' E 135°21'0 0.0
2018-Apr-16 18:30N 34°32' E 135°21'0 0.0
2018-Apr-16 18:00N 34°32' E 135°21'0 0.0
2018-Apr-16 17:30N 34°32' E 135°21'0 0.0
2018-Apr-16 16:57N 34°32' E 135°21'0 0.0
2018-Apr-16 16:30N 34°32' E 135°21'0 0.0
2018-Apr-16 16:00N 34°32' E 135°21'0 0.0
2018-Apr-16 15:30N 34°32' E 135°21'0 0.0
2018-Apr-16 15:00N 34°32' E 135°21'0 0.0
2018-Apr-16 14:30N 34°32' E 135°21'0 0.0
2018-Apr-16 14:00N 34°32' E 135°21'0 0.0
2018-Apr-16 13:30N 34°32' E 135°21'0 0.0
2018-Apr-16 13:00N 34°32' E 135°21'0 0.0
2018-Apr-16 12:30N 34°32' E 135°21'0 0.0
2018-Apr-16 12:00N 34°32' E 135°21'0 0.0
2018-Apr-16 11:30N 34°32' E 135°21'0 0.0
2018-Apr-16 11:00N 34°32' E 135°21'0 0.0
2018-Apr-16 10:30N 34°32' E 135°21'0 0.0
2018-Apr-16 10:00N 34°32' E 135°21'0 0.0
2018-Apr-16 09:30N 34°32' E 135°21'0 0.1
2018-Apr-16 09:00N 34°32' E 135°21'0 0.0
2018-Apr-16 08:30N 34°32' E 135°21'0 0.0
2018-Apr-16 08:00N 34°32' E 135°21'0 0.0
2018-Apr-16 07:30N 34°32' E 135°21'0 0.0
2018-Apr-16 07:00N 34°32' E 135°21'0 0.0
2018-Apr-16 06:30N 34°32' E 135°21'0 0.0
2018-Apr-16 06:00N 34°32' E 135°21'1 2.0
2018-Apr-16 05:30N 34°32' E 135°23'1 2.7
2018-Apr-16 05:00N 34°31' E 135°23'2 4.2
2018-Apr-16 04:30N 34°32' E 135°21'0 0.0
2018-Apr-16 03:57N 34°32' E 135°21'0 0.0
2018-Apr-16 03:30N 34°32' E 135°21'0 0.0
2018-Apr-16 02:57N 34°32' E 135°21'0 0.0
2018-Apr-16 02:30N 34°32' E 135°21'0 0.0
2018-Apr-16 02:00N 34°32' E 135°21'0 0.0
2018-Apr-16 01:30N 34°32' E 135°21'0 0.0
2018-Apr-16 01:00N 34°32' E 135°21'0 0.0
2018-Apr-16 00:27N 34°32' E 135°21'0 0.0
2018-Apr-15 23:57N 34°32' E 135°21'0 0.0
2018-Apr-15 23:27N 34°32' E 135°21'0 0.0
2018-Apr-15 22:57N 34°32' E 135°21'0 0.0
2018-Apr-15 22:27N 34°32' E 135°21'0 0.0
2018-Apr-15 22:00N 34°32' E 135°21'1 1.9
2018-Apr-15 21:30N 34°32' E 135°20'4 7.5
2018-Apr-15 21:00N 34°33' E 135°16'4 8.6
2018-Apr-15 20:30N 34°34' E 135°11'510.4
2018-Apr-15 20:00N 34°35' E 135°04'5 9.9
2018-Apr-15 19:30N 34°37' E 134°59'611.3
2018-Apr-15 19:00N 34°35' E 134°52'510.3
2018-Apr-15 18:30N 34°33' E 134°47'5 9.9
2018-Apr-15 18:00N 34°31' E 134°41'5 9.6
2018-Apr-15 17:29N 34°29' E 134°36'5 9.5
2018-Apr-15 17:00N 34°27' E 134°30'6 9.5
2018-Apr-15 16:24N 34°25' E 134°24'5 9.9
2018-Apr-15 15:53N 34°24' E 134°18'510.3
2018-Apr-15 15:25N 34°24' E 134°12'76 8.6
2018-Apr-15 06:36N 34°00' E 132°45'1 7.8
2018-Apr-15 06:30N 33°60' E 132°45'4 7.4
2018-Apr-15 06:00N 33°57' E 132°42'42 8.2
2018-Apr-15 00:50N 33°45' E 131°53'5 9.5
2018-Apr-15 00:20N 33°46' E 131°48'3 9.0
2018-Apr-14 23:58N 33°47' E 131°44'5 9.3
2018-Apr-14 23:25N 33°48' E 131°38'4 9.1
2018-Apr-14 23:00N 33°49' E 131°33'4 8.8
2018-Apr-14 22:30N 33°50' E 131°28'4 8.6
2018-Apr-14 22:00N 33°51' E 131°23'4 8.6
2018-Apr-14 21:30N 33°52' E 131°18'4 8.4
2018-Apr-14 20:59N 33°52' E 131°13'4 8.7
2018-Apr-14 20:30N 33°54' E 131°08'5 9.0
2018-Apr-14 20:00N 33°56' E 131°03'4 8.6
2018-Apr-14 19:30N 33°58' E 130°59'611.1
2018-Apr-14 19:00N 33°54' E 130°55'510.7
2018-Apr-14 18:30N 33°58' E 130°50'4 9.0
2018-Apr-14 18:00N 34°02' E 130°49'5 9.2
2018-Apr-14 17:30N 34°06' E 130°46'5 9.4
2018-Apr-14 17:00N 34°10' E 130°43'5 9.2
2018-Apr-14 16:30N 34°15' E 130°41'5 9.1
2018-Apr-14 16:00N 34°19' E 130°38'5 9.0
2018-Apr-14 15:30N 34°23' E 130°36'5 9.1
2018-Apr-14 14:58N 34°27' E 130°33'5 9.0
2018-Apr-14 14:21N 34°32' E 130°31'  
Track history (hours):
 
Tides and Currents Weather Stations Pressure Air Temp Water Temp Dewpoint Dewpoint Depression Visibility Wind Speed Wind Dir Waves Ship Positions

Jangho Young

Last reported at 2018-Apr-22 15:57 UTC. Time now 2018-Apr-22 16:26 UTC.
Position N 34°37' E 135°22'.

Length 60 m; draft 2.9 m.

Type: Cargo ship. MMSI: 441245000.

Date/timePositionNaut miles runAvg speedWind from/ knotsBaromVisibWave heightAir tempDewpointWater temp
2018-Apr-22 15:57N 34°37' E 135°22'0 0.0
2018-Apr-22 15:30N 34°37' E 135°22'0 0.0
2018-Apr-22 15:00N 34°37' E 135°22'0 0.0
2018-Apr-22 14:30N 34°37' E 135°22'0 0.1
2018-Apr-22 14:00N 34°37' E 135°22'0 0.0
2018-Apr-22 13:27N 34°37' E 135°22'0 0.0
2018-Apr-22 13:00N 34°37' E 135°22'0 0.0
2018-Apr-22 12:30N 34°37' E 135°22'0 0.0
2018-Apr-22 12:00N 34°37' E 135°22'0 0.0
2018-Apr-22 11:30N 34°37' E 135°22'0 0.0
2018-Apr-22 11:00N 34°37' E 135°22'0 0.0
2018-Apr-22 10:30N 34°37' E 135°22'0 0.0
2018-Apr-22 10:00N 34°37' E 135°22'1 1.3
2018-Apr-22 09:30N 34°37' E 135°21'5 9.2
2018-Apr-22 09:00N 34°36' E 135°15'510.1
2018-Apr-22 08:30N 34°35' E 135°09'510.5
2018-Apr-22 08:00N 34°36' E 135°03'510.5
2018-Apr-22 07:30N 34°36' E 134°57'510.8
2018-Apr-22 07:00N 34°34' E 134°51'510.0
2018-Apr-22 06:30N 34°32' E 134°45'510.1
2018-Apr-22 06:00N 34°30' E 134°40'510.1
2018-Apr-22 05:30N 34°28' E 134°34'510.0
2018-Apr-22 04:59N 34°26' E 134°28'5 9.6
2018-Apr-22 04:30N 34°24' E 134°23'5 9.1
2018-Apr-22 04:00N 34°24' E 134°18'4 8.8
2018-Apr-22 03:30N 34°24' E 134°12'5 9.0
2018-Apr-22 03:00N 34°26' E 134°07'72 5.1
2018-Apr-21 12:55N 34°01' E 132°46'4 9.9
2018-Apr-21 12:30N 33°58' E 132°43'4 8.9
2018-Apr-21 12:00N 33°55' E 132°39'5 9.1
2018-Apr-21 11:30N 33°53' E 132°34'8 9.0
2018-Apr-21 10:36N 33°51' E 132°25'1 9.3
2018-Apr-21 10:29N 33°50' E 132°24'8 8.9
2018-Apr-21 09:34N 33°50' E 132°14'1 9.0
2018-Apr-21 09:25N 33°50' E 132°12'3 8.3
2018-Apr-21 09:00N 33°48' E 132°09'5 8.4
2018-Apr-21 08:22N 33°45' E 132°03'3 8.6
2018-Apr-21 08:00N 33°45' E 131°59'4 8.8
2018-Apr-21 07:30N 33°45' E 131°54'4 8.8
2018-Apr-21 07:00N 33°46' E 131°49'5 9.6
2018-Apr-21 06:30N 33°47' E 131°43'5 9.5
2018-Apr-21 06:00N 33°48' E 131°37'5 9.1
2018-Apr-21 05:30N 33°49' E 131°32'5 9.2
2018-Apr-21 05:00N 33°50' E 131°27'4 9.1
2018-Apr-21 04:30N 33°51' E 131°21'5 9.2
2018-Apr-21 04:00N 33°52' E 131°16'4 8.8
2018-Apr-21 03:30N 33°53' E 131°11'4 8.7
2018-Apr-21 03:00N 33°55' E 131°06'4 8.5
2018-Apr-21 02:30N 33°57' E 131°02'4 7.0
2018-Apr-21 02:00N 33°58' E 130°58'2 4.3
2018-Apr-21 01:27N 33°57' E 130°55'0 0.0
2018-Apr-21 01:00N 33°57' E 130°55'0 0.1
2018-Apr-21 00:30N 33°57' E 130°56'0 0.2
2018-Apr-21 00:00N 33°57' E 130°56'0 0.0
2018-Apr-20 23:30N 33°57' E 130°56'3 5.4
2018-Apr-20 23:00N 33°54' E 130°54'5 9.8
2018-Apr-20 22:30N 33°58' E 130°50'4 8.6
2018-Apr-20 22:00N 34°02' E 130°48'4 8.7
2018-Apr-20 21:30N 34°05' E 130°44'4 8.9
2018-Apr-20 21:00N 34°07' E 130°40'5 9.2
2018-Apr-20 20:30N 34°10' E 130°35'5 9.5
2018-Apr-20 19:58N 34°12' E 130°30'4 9.4
2018-Apr-20 19:29N 34°15' E 130°26'5 9.4
2018-Apr-20 18:59N 34°18' E 130°21'4 9.3
2018-Apr-20 18:30N 34°20' E 130°16'5 9.6
2018-Apr-20 17:59N 34°23' E 130°11'5 9.2
2018-Apr-20 17:29N 34°25' E 130°06'4 9.4
2018-Apr-20 17:00N 34°28' E 130°02'5 9.2
2018-Apr-20 16:25N 34°31' E 129°56'4 9.0
2018-Apr-20 16:00N 34°33' E 129°53'5 9.2
2018-Apr-20 15:30N 34°35' E 129°48'5 9.4
2018-Apr-20 15:00N 34°38' E 129°43'4 8.7
2018-Apr-20 14:30N 34°40' E 129°39'5 9.0
2018-Apr-20 13:56N 34°43' E 129°34'4 8.4
2018-Apr-20 13:30N 34°45' E 129°30'5 8.1
2018-Apr-20 12:56N 34°47' E 129°25'4 9.4
2018-Apr-20 12:29N 34°49' E 129°20'4 9.1
2018-Apr-20 12:00N 34°51' E 129°15'5 9.1
2018-Apr-20 11:30N 34°53' E 129°10'4 8.5
2018-Apr-20 11:00N 34°55' E 129°06'15 0.6
2018-Apr-19 07:33N 35°00' E 128°48'110.8
2018-Apr-19 07:27N 34°59' E 128°49'4 8.1
2018-Apr-19 06:59N 34°59' E 128°54'9 7.5
2018-Apr-19 05:50N 35°01' E 129°04'2 6.3
2018-Apr-19 05:30N 35°02' E 129°06'4 7.6
2018-Apr-19 05:00N 35°06' E 129°05'1 1.3
2018-Apr-19 04:30N 35°06' E 129°05'0 0.1
2018-Apr-19 03:57N 35°06' E 129°05'0 0.1
2018-Apr-19 03:30N 35°06' E 129°05'0 0.1
2018-Apr-19 03:00N 35°06' E 129°05'0 0.1
2018-Apr-19 02:30N 35°06' E 129°05'0 0.0
2018-Apr-19 01:57N 35°06' E 129°05'0 0.1
2018-Apr-19 01:30N 35°06' E 129°05'0 0.0
2018-Apr-19 01:00N 35°06' E 129°05'0 0.3
2018-Apr-19 00:31N 35°06' E 129°05'4 7.8
2018-Apr-18 23:59N 35°04' E 129°09'45 9.2
2018-Apr-18 19:06N 34°37' E 129°53'2 8.8
2018-Apr-18 18:53N 34°36' E 129°55'5 9.6
2018-Apr-18 18:24N 34°33' E 129°59'19 8.9
2018-Apr-18 16:15N 34°22' E 130°18'5 9.1
2018-Apr-18 15:43N 34°19' E 130°23'3 8.6
2018-Apr-18 15:22N 34°17' E 130°25'4 8.9
2018-Apr-18 14:58N 34°15' E 130°29'4 9.1
2018-Apr-18 14:29N 34°12' E 130°33'5 9.0
2018-Apr-18 13:58N 34°09' E 130°38'4 9.0
2018-Apr-18 13:30N 34°07' E 130°42'4 8.9
2018-Apr-18 13:00N 34°04' E 130°46'5 9.3
2018-Apr-18 12:30N 34°02' E 130°50'4 8.2
2018-Apr-18 12:00N 33°58' E 130°53'4 7.5
2018-Apr-18 11:30N 33°55' E 130°56'5 9.7
2018-Apr-18 11:00N 33°59' E 130°60'3 5.1
2018-Apr-18 10:30N 33°58' E 131°02'1 2.4
2018-Apr-18 10:00N 33°57' E 131°04'2 3.3
2018-Apr-18 09:30N 33°56' E 131°05'5 9.4
2018-Apr-18 09:00N 33°54' E 131°10'5 9.5
2018-Apr-18 08:30N 33°52' E 131°15'5 9.2
2018-Apr-18 08:00N 33°51' E 131°21'1 2.1
2018-Apr-18 07:30N 33°51' E 131°22'3 6.3
2018-Apr-18 07:00N 33°50' E 131°25'4 8.8
2018-Apr-18 06:30N 33°49' E 131°30'4 8.6
2018-Apr-18 06:00N 33°48' E 131°36'4 8.3
2018-Apr-18 05:30N 33°48' E 131°41'4 8.2
2018-Apr-18 05:00N 33°47' E 131°45'4 8.4
2018-Apr-18 04:30N 33°46' E 131°50'3 4.6
2018-Apr-18 03:56N 33°45' E 131°53'510.9
2018-Apr-18 03:28N 33°46' E 131°47'1 2.4
2018-Apr-18 03:00N 33°46' E 131°48'5 8.8
2018-Apr-18 02:27N 33°46' E 131°54'4 9.0
2018-Apr-18 02:00N 33°45' E 131°59'5 9.1
2018-Apr-18 01:28N 33°46' E 132°05'5 9.3
2018-Apr-18 00:56N 33°49' E 132°09'4 8.8
2018-Apr-18 00:30N 33°50' E 132°14'5 9.0
2018-Apr-17 23:56N 33°50' E 132°20'11 8.7
2018-Apr-17 22:43N 33°53' E 132°32'3 9.6
2018-Apr-17 22:25N 33°54' E 132°36'4 9.5
2018-Apr-17 22:00N 33°56' E 132°40'5 9.6
2018-Apr-17 21:31N 33°59' E 132°44'84 9.3
2018-Apr-17 12:32N 34°25' E 134°20'210.1
2018-Apr-17 12:22N 34°25' E 134°22'4 9.9
2018-Apr-17 11:59N 34°27' E 134°27'510.0
2018-Apr-17 11:30N 34°29' E 134°32'510.0
2018-Apr-17 11:00N 34°30' E 134°38'510.4
2018-Apr-17 10:30N 34°32' E 134°44'610.7
2018-Apr-17 10:00N 34°34' E 134°50'511.2
2018-Apr-17 09:30N 34°36' E 134°56'5 8.8
2018-Apr-17 08:59N 34°37' E 135°01'4 8.9
2018-Apr-17 08:30N 34°36' E 135°06'5 9.9
2018-Apr-17 08:00N 34°35' E 135°12'5 9.5
2018-Apr-17 07:30N 34°34' E 135°18'5 9.2
2018-Apr-17 07:00N 34°32' E 135°23'1 2.4
2018-Apr-17 06:30N 34°31' E 135°24'0 0.0
2018-Apr-17 06:00N 34°31' E 135°24'0 0.0
2018-Apr-17 05:30N 34°31' E 135°24'0 0.0
2018-Apr-17 05:00N 34°31' E 135°24'0 0.0
2018-Apr-17 04:30N 34°31' E 135°24'0 0.0
2018-Apr-17 04:00N 34°31' E 135°24'0 0.0
2018-Apr-17 03:30N 34°31' E 135°24'0 0.0
2018-Apr-17 03:00N 34°31' E 135°24'0 0.0
2018-Apr-17 02:30N 34°31' E 135°24'0 0.0
2018-Apr-17 02:00N 34°31' E 135°24'0 0.0
2018-Apr-17 01:30N 34°31' E 135°24'0 0.0
2018-Apr-17 01:00N 34°31' E 135°24'0 0.0
2018-Apr-17 00:30N 34°31' E 135°24'0 0.0
2018-Apr-17 00:00N 34°31' E 135°24'0 0.0
2018-Apr-16 23:27N 34°31' E 135°24'0 0.0
2018-Apr-16 23:00N 34°31' E 135°24'0 0.2
2018-Apr-16 22:30N 34°31' E 135°23'2 4.5
2018-Apr-16 22:01N 34°32' E 135°22'0 0.5
2018-Apr-16 21:30N 34°32' E 135°21'0 0.0
2018-Apr-16 21:00N 34°32' E 135°21'0 0.0
2018-Apr-16 20:30N 34°32' E 135°21'0 0.0
2018-Apr-16 20:00N 34°32' E 135°21'0 0.0
2018-Apr-16 19:30N 34°32' E 135°21'0 0.0
2018-Apr-16 19:00N 34°32' E 135°21'0 0.0
2018-Apr-16 18:30N 34°32' E 135°21'0 0.0
2018-Apr-16 18:00N 34°32' E 135°21'0 0.0
2018-Apr-16 17:30N 34°32' E 135°21'0 0.0
2018-Apr-16 16:57N 34°32' E 135°21'0 0.0
2018-Apr-16 16:30N 34°32' E 135°21'0 0.0
2018-Apr-16 16:00N 34°32' E 135°21'0 0.0
2018-Apr-16 15:30N 34°32' E 135°21'0 0.0
2018-Apr-16 15:00N 34°32' E 135°21'0 0.0
2018-Apr-16 14:30N 34°32' E 135°21'0 0.0
2018-Apr-16 14:00N 34°32' E 135°21'0 0.0
2018-Apr-16 13:30N 34°32' E 135°21'0 0.0
2018-Apr-16 13:00N 34°32' E 135°21'0 0.0
2018-Apr-16 12:30N 34°32' E 135°21'0 0.0
2018-Apr-16 12:00N 34°32' E 135°21'0 0.0
2018-Apr-16 11:30N 34°32' E 135°21'0 0.0
2018-Apr-16 11:00N 34°32' E 135°21'0 0.0
2018-Apr-16 10:30N 34°32' E 135°21'0 0.0
2018-Apr-16 10:00N 34°32' E 135°21'0 0.0
2018-Apr-16 09:30N 34°32' E 135°21'0 0.1
2018-Apr-16 09:00N 34°32' E 135°21'0 0.0
2018-Apr-16 08:30N 34°32' E 135°21'0 0.0
2018-Apr-16 08:00N 34°32' E 135°21'0 0.0
2018-Apr-16 07:30N 34°32' E 135°21'0 0.0
2018-Apr-16 07:00N 34°32' E 135°21'0 0.0
2018-Apr-16 06:30N 34°32' E 135°21'0 0.0
2018-Apr-16 06:00N 34°32' E 135°21'1 2.0
2018-Apr-16 05:30N 34°32' E 135°23'1 2.7
2018-Apr-16 05:00N 34°31' E 135°23'2 4.2
2018-Apr-16 04:30N 34°32' E 135°21'0 0.0
2018-Apr-16 03:57N 34°32' E 135°21'0 0.0
2018-Apr-16 03:30N 34°32' E 135°21'0 0.0
2018-Apr-16 02:57N 34°32' E 135°21'0 0.0
2018-Apr-16 02:30N 34°32' E 135°21'0 0.0
2018-Apr-16 02:00N 34°32' E 135°21'0 0.0
2018-Apr-16 01:30N 34°32' E 135°21'0 0.0
2018-Apr-16 01:00N 34°32' E 135°21'0 0.0
2018-Apr-16 00:27N 34°32' E 135°21'0 0.0
2018-Apr-15 23:57N 34°32' E 135°21'0 0.0
2018-Apr-15 23:27N 34°32' E 135°21'0 0.0
2018-Apr-15 22:57N 34°32' E 135°21'0 0.0
2018-Apr-15 22:27N 34°32' E 135°21'0 0.0
2018-Apr-15 22:00N 34°32' E 135°21'1 1.9
2018-Apr-15 21:30N 34°32' E 135°20'4 7.5
2018-Apr-15 21:00N 34°33' E 135°16'4 8.6
2018-Apr-15 20:30N 34°34' E 135°11'510.4
2018-Apr-15 20:00N 34°35' E 135°04'5 9.9
2018-Apr-15 19:30N 34°37' E 134°59'611.3
2018-Apr-15 19:00N 34°35' E 134°52'510.3
2018-Apr-15 18:30N 34°33' E 134°47'5 9.9
2018-Apr-15 18:00N 34°31' E 134°41'5 9.6
2018-Apr-15 17:29N 34°29' E 134°36'5 9.5
2018-Apr-15 17:00N 34°27' E 134°30'6 9.5
2018-Apr-15 16:24N 34°25' E 134°24'5 9.9
2018-Apr-15 15:53N 34°24' E 134°18'510.3
2018-Apr-15 15:25N 34°24' E 134°12'76 8.6
2018-Apr-15 06:36N 34°00' E 132°45'1 7.8
2018-Apr-15 06:30N 33°60' E 132°45'4 7.4
2018-Apr-15 06:00N 33°57' E 132°42'42 8.2
2018-Apr-15 00:50N 33°45' E 131°53'5 9.5
2018-Apr-15 00:20N 33°46' E 131°48'3 9.0
2018-Apr-14 23:58N 33°47' E 131°44'5 9.3
2018-Apr-14 23:25N 33°48' E 131°38'4 9.1
2018-Apr-14 23:00N 33°49' E 131°33'4 8.8
2018-Apr-14 22:30N 33°50' E 131°28'4 8.6
2018-Apr-14 22:00N 33°51' E 131°23'4 8.6
2018-Apr-14 21:30N 33°52' E 131°18'4 8.4
2018-Apr-14 20:59N 33°52' E 131°13'4 8.7
2018-Apr-14 20:30N 33°54' E 131°08'5 9.0
2018-Apr-14 20:00N 33°56' E 131°03'4 8.6
2018-Apr-14 19:30N 33°58' E 130°59'611.1
2018-Apr-14 19:00N 33°54' E 130°55'510.7
2018-Apr-14 18:30N 33°58' E 130°50'4 9.0
2018-Apr-14 18:00N 34°02' E 130°49'5 9.2
2018-Apr-14 17:30N 34°06' E 130°46'5 9.4
2018-Apr-14 17:00N 34°10' E 130°43'5 9.2
2018-Apr-14 16:30N 34°15' E 130°41'5 9.1
2018-Apr-14 16:00N 34°19' E 130°38'5 9.0
2018-Apr-14 15:30N 34°23' E 130°36'5 9.1
2018-Apr-14 14:58N 34°27' E 130°33'5 9.0
2018-Apr-14 14:21N 34°32' E 130°31'  

Dump ship's entire track history